KBVY/BVY METAR and TAF weather

Enter ICAO airport designator
Station Type Date Time Source
KBVY METAR 2020/12/05 05:53 UTC NOAA

KBVY 050553Z AUTO 25005KT 10SM FEW050 SCT060 OVC070 09/05 A2988 RMK AO2 SLP115 60000 T00890050 10117 20089 58006


Station Type Date Time Source
KBVY Decoded METAR 2020/12/05 05:53 UTC NOAA

BEVERLY MUNICIPAL AIRPORT, MA, United States (KBVY) 42-35N 070-55W 28M
Dec 05, 2020 - 12:53 AM EST / 2020.12.05 0553 UTC
Wind: from the WSW (250 degrees) at 6 MPH (5 KT):0
Visibility: 10 mile(s):0
Sky conditions: overcast
Temperature: 48.0 F (8.9 C)
Dew Point: 41.0 F (5.0 C)
Relative Humidity: 76%
Pressure (altimeter): 29.88 in. Hg (1011 hPa)
Pressure tendency: 0.02 inches (0.6 hPa) lower than three hours ago
ob: KBVY 050553Z AUTO 25005KT 10SM FEW050 SCT060 OVC070 09/05 A2988 RMK AO2 SLP115 60000 T00890050 10117 20089 58006
cycle: 6

Station Type Date Time Source
KBVY TAF UTC NOAA

Error!

Example: see airport list